Home PIREPS Pireps

Flight BEL2906

  • Submitted By: Johan Willems
  • Departure Airport: Flughafen Wien-Schwechat (LOWW)
  • Arrival Airport: Bruxelles National (EBBR)
  • Aircraft: A319-112 (OO-SSG)
  • Flight Time: 01.36
  • Date Submitted: 04/05/2015
  • Status: Accepted
Flight Details
Gross Revenue:
(123 load / € 125.00 per unit
€ 15,375.00
Fuel Cost:
(4165 fuel used @ 5.1 / unit)
€ 21,241.50

Additional Log Information:

View Log

Aircraft Used in flight is Airbus A320 brussels
15:04 Brakes are On
15:05 Brakes are Released
15:10 You Took off @ 146 Knots and Flaps at Position 3
Departure Weather
LOWW 041250Z 28005KT 220V310 9999 FEW045 BKN110 24/13 Q1012 NOSIGrn
15:10 Landing Gear Up @ 155 Knots and 630 Feet
15:11 You exceeded maximum bank angle
15:13 Above FL100 you need to switch of the landing lights
16:29 Below 10000 feet you are not allowed to go over 250 knots
16:33 Landing Gear Down @ 144 Knots and 1960 Feet
16:35 You Landed @ 138 Knots and with -150 Vertical Speed
Arrival Weather
EBBR 041420Z 16007KT 130V190 9999 SCT043 19/10 Q1007 NOSIGrn
16:39 Brakes are On
16:39 Brussels Bel-Track1.0.0.9

Route Map

Corporate About Us Our Team Vacancies Information Fleet Route Network Rules and Regulations Operations Flight Schedules Event Center Tours Partners IVAO Vatsim Acars dev FSCB

fb Users Online No pilots online!
0 Pilot(s) and 75 Guest(s) Online
CMS by phpVMS - Design by Crazycreatives.com - Copyright © 2018 - Brussels Airlines Virtual